Time;durP1;ratioP1;P1;durP2;ratioP2;P2;SDS_P1;SDS_P2;PMS_P1;PMS_P2;Temp;Humidity;BMP_temperature;BMP_pressure;BME280_temperature;BME280_humidity;BME280_pressure;Samples;Min_cycle;Max_cycle;Signal;HPM_P1;HPM_P2
2023/12/14 00:02:06;;;;;;;44.10;27.40;;;;;;;4.28;100.00;99420.73;105095;1258;80879;-63
2023/12/14 00:04:34;;;;;;;41.70;25.90;;;;;;;4.27;100.00;99423.02;105140;1257;70246;-63
2023/12/14 00:07:02;;;;;;;44.00;27.70;;;;;;;4.27;100.00;99425.45;105131;1260;69164;-63
2023/12/14 00:09:30;;;;;;;46.10;28.20;;;;;;;4.25;100.00;99430.14;105112;1260;69312;-63
2023/12/14 00:11:59;;;;;;;43.50;26.90;;;;;;;4.24;100.00;99434.35;105160;1257;73969;-63
2023/12/14 00:14:27;;;;;;;44.00;27.40;;;;;;;4.23;100.00;99442.48;105206;1260;82058;-63
2023/12/14 00:16:58;;;;;;;48.20;29.40;;;;;;;4.22;100.00;99442.69;105175;1258;73966;-63
2023/12/14 00:19:27;;;;;;;50.80;30.00;;;;;;;4.21;100.00;99446.52;105167;1260;69154;-63
2023/12/14 00:21:55;;;;;;;50.90;30.00;;;;;;;4.20;100.00;99447.39;105198;1258;69199;-63
2023/12/14 00:24:23;;;;;;;50.80;29.00;;;;;;;4.20;100.00;99450.84;105170;1258;73032;-63
2023/12/14 00:26:51;;;;;;;48.90;29.70;;;;;;;4.20;100.00;99453.10;105091;1260;81843;-63
2023/12/14 00:29:20;;;;;;;54.90;31.50;;;;;;;4.20;100.00;99456.39;105095;1260;70311;-63
2023/12/14 00:31:48;;;;;;;55.20;31.60;;;;;;;4.19;100.00;99461.59;105138;1260;69234;-63
2023/12/14 00:34:16;;;;;;;55.30;32.70;;;;;;;4.18;100.00;99465.43;105121;1256;69167;-63
2023/12/14 00:36:44;;;;;;;58.90;33.30;;;;;;;4.18;100.00;99469.58;105152;1256;73415;-63
2023/12/14 00:39:13;;;;;;;58.30;33.80;;;;;;;4.19;100.00;99471.30;105125;1260;81533;-63
2023/12/14 00:41:41;;;;;;;59.80;33.40;;;;;;;4.20;100.00;99473.68;105175;1258;71858;-63
2023/12/14 00:44:09;;;;;;;63.50;34.80;;;;;;;4.20;100.00;99475.75;105106;1257;69090;-63
2023/12/14 00:46:37;;;;;;;63.90;35.60;;;;;;;4.19;100.00;99478.72;105189;1260;69184;-63
2023/12/14 00:49:05;;;;;;;67.10;34.90;;;;;;;4.18;100.00;99480.65;105134;1258;73147;-63
2023/12/14 00:51:34;;;;;;;71.50;37.80;;;;;;;4.17;100.00;99481.19;105071;1262;81472;-63
2023/12/14 00:54:02;;;;;;;69.30;38.10;;;;;;;4.16;100.00;99485.89;105187;1261;72317;-63
2023/12/14 00:56:30;;;;;;;76.60;39.10;;;;;;;4.15;100.00;99490.77;105100;1257;69091;-63
2023/12/14 00:58:58;;;;;;;69.30;37.70;;;;;;;4.15;100.00;99495.95;105113;1260;69138;-63
2023/12/14 01:01:26;;;;;;;75.20;38.00;;;;;;;4.15;100.00;99498.70;105128;1257;73080;-63
2023/12/14 01:03:55;;;;;;;79.70;41.10;;;;;;;4.15;100.00;99501.66;105173;1256;82744;-63
2023/12/14 01:06:23;;;;;;;101.60;49.00;;;;;;;4.14;100.00;99501.68;105136;1257;71638;-63
2023/12/14 01:08:51;;;;;;;111.40;53.20;;;;;;;4.12;100.00;99498.63;105217;1257;69131;-63
2023/12/14 01:11:19;;;;;;;106.10;49.40;;;;;;;4.09;100.00;99499.39;105108;1260;69212;-63
2023/12/14 01:13:47;;;;;;;101.90;48.60;;;;;;;4.07;100.00;99507.05;105110;1258;71583;-63
2023/12/14 01:16:15;;;;;;;109.00;51.10;;;;;;;4.07;100.00;99510.83;105135;1260;82782;-63
2023/12/14 01:18:44;;;;;;;102.10;49.90;;;;;;;4.06;100.00;99512.77;105091;1258;72106;-63
2023/12/14 01:21:12;;;;;;;108.80;50.30;;;;;;;4.04;100.00;99514.20;105108;1257;69688;-63
2023/12/14 01:23:40;;;;;;;99.00;46.80;;;;;;;4.02;100.00;99515.45;105130;1260;69201;-62
2023/12/14 01:26:08;;;;;;;98.10;48.40;;;;;;;4.01;100.00;99517.39;105187;1258;72848;-63
2023/12/14 01:28:36;;;;;;;101.20;46.00;;;;;;;3.97;100.00;99520.42;105101;1256;82817;-63
2023/12/14 01:31:05;;;;;;;100.60;45.70;;;;;;;3.95;100.00;99522.38;105083;1257;72993;-63
2023/12/14 01:33:33;;;;;;;95.80;44.80;;;;;;;3.94;100.00;99525.35;105198;1257;69103;-63
2023/12/14 01:36:01;;;;;;;98.70;46.00;;;;;;;3.93;100.00;99526.40;105214;1260;69161;-63
2023/12/14 01:38:29;;;;;;;102.30;45.40;;;;;;;3.91;100.00;99525.42;105131;1258;72835;-63
2023/12/14 01:40:59;;;;;;;93.30;43.70;;;;;;;3.91;100.00;99532.33;105124;1261;81826;-63
2023/12/14 01:43:27;;;;;;;95.90;44.80;;;;;;;3.89;100.00;99531.16;105153;1257;72175;-63
2023/12/14 01:45:55;;;;;;;86.30;43.30;;;;;;;3.89;100.00;99532.72;105126;1261;69123;-62
2023/12/14 01:48:23;;;;;;;86.00;41.60;;;;;;;3.88;100.00;99538.10;105127;1260;69262;-63
2023/12/14 01:50:52;;;;;;;87.70;41.90;;;;;;;3.88;100.00;99538.98;105146;1260;72998;-63
2023/12/14 01:53:20;;;;;;;93.30;42.90;;;;;;;3.88;100.00;99535.50;105170;1260;81544;-63
2023/12/14 01:55:49;;;;;;;77.20;37.80;;;;;;;3.88;100.00;99534.64;105095;1261;72972;-63
2023/12/14 01:58:17;;;;;;;87.80;39.50;;;;;;;3.88;100.00;99533.77;105086;1257;69165;-63
2023/12/14 02:01:15;;;;;;;75.50;37.60;;;;;;;3.88;100.00;99535.33;105086;1258;69184;-63
2023/12/14 02:03:51;;;;;;;75.40;38.40;;;;;;;3.86;100.00;99541.42;105187;1260;73445;-62
2023/12/14 02:06:19;;;;;;;75.40;35.70;;;;;;;3.85;100.00;99541.79;105183;1257;81875;-62
2023/12/14 02:08:47;;;;;;;69.20;34.60;;;;;;;3.84;100.00;99547.70;105158;1257;72150;-62
2023/12/14 02:11:15;;;;;;;78.20;36.40;;;;;;;3.82;100.00;99549.30;105138;1260;69223;-62
2023/12/14 02:13:44;;;;;;;70.50;35.20;;;;;;;3.80;100.00;99549.00;105121;1260;69192;-62
2023/12/14 02:16:12;;;;;;;67.20;35.50;;;;;;;3.78;100.00;99542.31;105149;1257;73660;-62
2023/12/14 02:18:41;;;;;;;75.00;36.20;;;;;;;3.77;100.00;99546.13;105150;1260;82065;-62
2023/12/14 02:21:09;;;;;;;77.80;35.60;;;;;;;3.75;100.00;99550.83;105158;1257;71719;-62
2023/12/14 02:23:44;;;;;;;71.50;34.20;;;;;;;3.75;100.00;99553.45;105135;1257;69186;-62
2023/12/14 02:26:13;;;;;;;72.50;35.80;;;;;;;3.73;100.00;99558.84;105210;1256;69059;-62
2023/12/14 02:28:41;;;;;;;72.20;34.50;;;;;;;3.71;100.00;99562.84;105211;1257;72799;-62
2023/12/14 02:31:10;;;;;;;70.50;34.70;;;;;;;3.70;100.00;99560.79;105126;1257;81567;-62
2023/12/14 02:33:39;;;;;;;78.50;35.70;;;;;;;3.69;100.00;99561.86;105161;1257;71844;-62
2023/12/14 02:36:07;;;;;;;75.40;34.80;;;;;;;3.67;100.00;99561.23;105129;1256;69799;-62
2023/12/14 02:38:35;;;;;;;69.80;33.80;;;;;;;3.65;100.00;99564.20;105152;1260;69321;-62
2023/12/14 02:41:04;;;;;;;71.60;34.00;;;;;;;3.64;100.00;99564.75;105125;1257;73308;-62
2023/12/14 02:43:33;;;;;;;69.40;33.30;;;;;;;3.64;100.00;99570.44;105150;1260;81749;-62
2023/12/14 02:46:02;;;;;;;72.80;35.80;;;;;;;3.61;100.00;99567.56;105192;1260;72895;-62
2023/12/14 02:48:30;;;;;;;77.80;35.30;;;;;;;3.61;100.00;99567.93;105143;1260;69136;-62
2023/12/14 02:51:02;;;;;;;76.90;35.40;;;;;;;3.59;100.00;99570.38;105141;1260;69223;-62
2023/12/14 02:53:30;;;;;;;77.60;36.40;;;;;;;3.58;100.00;99571.27;105138;1258;72955;-62
2023/12/14 02:56:01;;;;;;;78.20;35.40;;;;;;;3.57;100.00;99575.94;105119;1261;80339;-62
2023/12/14 02:58:30;;;;;;;75.80;36.80;;;;;;;3.57;100.00;99580.78;105126;1257;71361;-62
2023/12/14 03:00:58;;;;;;;76.90;34.50;;;;;;;3.56;100.00;99588.76;105071;1262;69298;-62
2023/12/14 03:03:26;;;;;;;79.00;35.50;;;;;;;3.53;100.00;99592.44;105101;1260;69186;-62
2023/12/14 03:05:55;;;;;;;73.00;33.60;;;;;;;3.52;100.00;99590.73;105145;1257;73329;-62
2023/12/14 03:08:23;;;;;;;74.90;33.90;;;;;;;3.51;100.00;99592.98;105206;1260;82055;-62
2023/12/14 03:10:51;;;;;;;71.50;33.40;;;;;;;3.50;100.00;99598.73;105119;1260;72120;-62
2023/12/14 03:13:20;;;;;;;74.40;34.20;;;;;;;3.49;100.00;99600.13;105126;1260;69176;-62
2023/12/14 03:15:49;;;;;;;71.00;32.60;;;;;;;3.49;100.00;99600.13;105131;1256;69170;-63
2023/12/14 03:18:17;;;;;;;79.50;33.10;;;;;;;3.49;100.00;99605.65;105183;1260;73092;-62
2023/12/14 03:20:46;;;;;;;79.90;34.60;;;;;;;3.48;100.00;99612.92;105125;1256;82995;-62
2023/12/14 03:23:14;;;;;;;81.80;33.80;;;;;;;3.48;100.00;99616.73;105097;1256;72125;-62
2023/12/14 03:25:42;;;;;;;74.20;33.80;;;;;;;3.48;100.00;99620.19;105103;1261;69140;-62
2023/12/14 03:28:10;;;;;;;81.60;32.90;;;;;;;3.45;100.00;99624.39;105136;1260;69231;-62
2023/12/14 03:30:39;;;;;;;77.60;34.20;;;;;;;3.44;100.00;99631.50;105159;1260;74046;-62
2023/12/14 03:33:07;;;;;;;77.70;32.60;;;;;;;3.43;100.00;99631.67;105093;1260;81854;-62
2023/12/14 03:35:36;;;;;;;80.70;33.80;;;;;;;3.44;100.00;99637.37;105169;1257;71735;-62
2023/12/14 03:38:04;;;;;;;72.10;32.70;;;;;;;3.43;100.00;99642.73;105080;1256;69084;-62
2023/12/14 03:40:33;;;;;;;73.20;33.10;;;;;;;3.44;100.00;99642.90;105190;1256;69177;-62
2023/12/14 03:43:03;;;;;;;71.90;33.30;;;;;;;3.46;100.00;99644.75;105125;1256;73414;-62
2023/12/14 03:45:31;;;;;;;72.50;32.40;;;;;;;3.47;100.00;99649.73;105156;1257;81490;-62
2023/12/14 03:47:59;;;;;;;75.00;32.80;;;;;;;3.45;100.00;99650.11;105137;1256;70233;-62
2023/12/14 03:50:29;;;;;;;77.70;33.00;;;;;;;3.45;100.00;99654.97;105132;1258;69132;-62
2023/12/14 03:52:57;;;;;;;66.80;30.20;;;;;;;3.44;100.00;99655.33;105185;1260;69203;-62
2023/12/14 03:55:25;;;;;;;72.90;33.10;;;;;;;3.44;100.00;99657.23;105138;1256;73028;-62
2023/12/14 03:57:53;;;;;;;66.10;31.80;;;;;;;3.44;100.00;99663.63;105121;1260;81786;-62
2023/12/14 04:00:21;;;;;;;61.20;29.80;;;;;;;3.45;100.00;99671.55;105117;1260;71826;-62
2023/12/14 04:02:49;;;;;;;72.80;31.80;;;;;;;3.44;100.00;99672.59;105198;1258;69125;-62
2023/12/14 04:05:18;;;;;;;70.30;30.30;;;;;;;3.45;100.00;99679.30;105107;1260;69263;-62
2023/12/14 04:07:46;;;;;;;61.20;30.00;;;;;;;3.46;100.00;99682.57;105136;1257;72882;-62
2023/12/14 04:10:15;;;;;;;77.00;32.40;;;;;;;3.46;100.00;99689.48;105128;1260;81799;-62
2023/12/14 04:12:43;;;;;;;70.60;31.60;;;;;;;3.48;100.00;99695.31;105190;1257;71801;-62
2023/12/14 04:15:12;;;;;;;69.60;30.50;;;;;;;3.47;100.00;99694.46;105215;1261;69215;-62
2023/12/14 04:17:40;;;;;;;69.10;30.70;;;;;;;3.48;100.00;99696.55;105207;1260;69224;-62
2023/12/14 04:20:09;;;;;;;68.00;31.80;;;;;;;3.46;100.00;99695.00;105116;1257;73116;-62
2023/12/14 04:22:37;;;;;;;68.80;30.50;;;;;;;3.46;100.00;99696.90;105160;1256;81737;-62
2023/12/14 04:25:06;;;;;;;64.50;30.30;;;;;;;3.47;100.00;99696.38;105122;1258;71954;-61
2023/12/14 04:27:34;;;;;;;72.70;30.60;;;;;;;3.46;100.00;99697.42;105170;1256;69092;-61
2023/12/14 04:30:04;;;;;;;65.20;28.70;;;;;;;3.46;100.00;99697.26;105126;1260;69192;-61
2023/12/14 04:32:32;;;;;;;73.10;31.80;;;;;;;3.49;100.00;99700.66;105161;1261;72468;-62
2023/12/14 04:35:01;;;;;;;66.60;30.30;;;;;;;3.49;100.00;99702.55;105051;1256;81389;-61
2023/12/14 04:37:30;;;;;;;67.90;30.70;;;;;;;3.49;100.00;99703.07;105206;1260;72490;-61
2023/12/14 04:39:59;;;;;;;69.80;30.30;;;;;;;3.49;100.00;99705.15;105165;1260;69193;-61
2023/12/14 04:42:27;;;;;;;69.60;31.10;;;;;;;3.48;100.00;99703.08;105198;1258;69184;-62
2023/12/14 04:44:55;;;;;;;68.10;30.70;;;;;;;3.48;100.00;99707.05;105183;1256;73527;-62
2023/12/14 04:47:24;;;;;;;65.30;28.90;;;;;;;3.47;100.00;99707.09;105123;1258;80042;-62
2023/12/14 04:49:52;;;;;;;68.30;31.00;;;;;;;3.46;100.00;99711.23;105096;1260;70881;-62
2023/12/14 04:52:20;;;;;;;62.10;28.20;;;;;;;3.46;100.00;99718.66;105136;1256;69206;-62
2023/12/14 04:54:48;;;;;;;66.70;29.40;;;;;;;3.46;100.00;99725.05;105114;1259;69211;-62
2023/12/14 04:57:16;;;;;;;67.50;30.60;;;;;;;3.45;100.00;99724.38;105130;1259;71519;-62
2023/12/14 04:59:44;;;;;;;71.50;32.50;;;;;;;3.44;100.00;99730.64;105115;1260;81850;-62
2023/12/14 05:02:12;;;;;;;68.30;30.70;;;;;;;3.43;100.00;99733.74;105103;1256;71274;-62
2023/12/14 05:04:41;;;;;;;71.00;30.50;;;;;;;3.43;100.00;99741.69;105164;1256;69704;-63
2023/12/14 05:07:09;;;;;;;66.40;30.40;;;;;;;3.43;100.00;99743.06;105152;1256;69119;-62
2023/12/14 05:09:37;;;;;;;66.30;28.60;;;;;;;3.43;100.00;99743.08;105153;1256;72098;-62
2023/12/14 05:12:06;;;;;;;66.00;29.10;;;;;;;3.44;100.00;99748.76;105145;1260;81363;-62
2023/12/14 05:14:34;;;;;;;66.90;29.90;;;;;;;3.44;100.00;99753.60;105178;1257;71730;-63
2023/12/14 05:17:03;;;;;;;70.20;29.70;;;;;;;3.44;100.00;99757.58;105164;1258;69185;-63
2023/12/14 05:19:34;;;;;;;70.00;30.00;;;;;;;3.45;100.00;99763.60;105169;1257;69211;-62
2023/12/14 05:22:04;;;;;;;64.60;29.00;;;;;;;3.45;100.00;99763.10;105149;1260;73086;-63
2023/12/14 05:24:32;;;;;;;61.30;28.50;;;;;;;3.45;100.00;99768.27;105101;1256;82060;-63
2023/12/14 05:27:00;;;;;;;57.50;28.20;;;;;;;3.45;100.00;99774.64;105125;1257;72016;-63
2023/12/14 05:29:28;;;;;;;56.40;26.80;;;;;;;3.45;100.00;99775.68;105143;1256;69074;-62
2023/12/14 05:31:56;;;;;;;68.20;29.70;;;;;;;3.46;100.00;99777.05;105218;1256;69131;-63
2023/12/14 05:34:25;;;;;;;70.30;31.10;;;;;;;3.46;100.00;99777.73;105152;1257;72796;-63
2023/12/14 05:36:53;;;;;;;62.10;28.80;;;;;;;3.46;100.00;99781.00;105166;1260;81349;-63
2023/12/14 05:39:21;;;;;;;60.40;27.80;;;;;;;3.47;100.00;99786.70;105092;1256;70930;-63
2023/12/14 05:41:50;;;;;;;56.60;27.00;;;;;;;3.47;100.00;99792.57;105211;1257;69122;-63
2023/12/14 05:44:18;;;;;;;53.70;25.30;;;;;;;3.47;100.00;99795.68;105137;1256;69171;-63
2023/12/14 05:46:46;;;;;;;53.70;25.00;;;;;;;3.46;100.00;99798.98;105116;1256;71350;-63
2023/12/14 05:49:15;;;;;;;58.20;25.60;;;;;;;3.48;100.00;99802.94;105139;1260;81477;-63
2023/12/14 05:51:43;;;;;;;54.10;25.20;;;;;;;3.49;100.00;99804.29;105201;1260;73149;-63
2023/12/14 05:54:12;;;;;;;55.50;26.40;;;;;;;3.48;100.00;99811.39;105097;1257;69133;-63
2023/12/14 05:56:40;;;;;;;54.40;26.10;;;;;;;3.46;100.00;99815.89;105155;1260;69224;-63
2023/12/14 05:59:09;;;;;;;53.10;24.50;;;;;;;3.47;100.00;99823.16;105196;1257;73115;-63
2023/12/14 06:01:38;;;;;;;54.80;25.00;;;;;;;3.46;100.00;99825.40;105081;1262;82531;-63
2023/12/14 06:04:06;;;;;;;54.80;25.10;;;;;;;3.46;100.00;99831.63;105152;1257;72855;-63
2023/12/14 06:06:38;;;;;;;55.60;25.00;;;;;;;3.47;100.00;99835.60;105175;1257;69090;-63
2023/12/14 06:09:07;;;;;;;55.20;26.80;;;;;;;3.47;100.00;99837.30;105166;1260;69176;-63
2023/12/14 06:11:36;;;;;;;60.30;25.40;;;;;;;3.48;100.00;99841.09;105216;1260;72164;-63
2023/12/14 06:14:04;;;;;;;50.20;24.70;;;;;;;3.49;100.00;99840.04;105194;1260;81656;-63
2023/12/14 06:16:33;;;;;;;52.70;25.50;;;;;;;3.50;100.00;99841.76;105129;1256;71711;-63
2023/12/14 06:19:01;;;;;;;49.50;24.40;;;;;;;3.51;100.00;99839.50;105177;1261;69123;-63
2023/12/14 06:21:30;;;;;;;52.70;24.60;;;;;;;3.51;100.00;99845.18;105149;1261;70568;-63
2023/12/14 06:23:59;;;;;;;44.00;22.80;;;;;;;3.51;100.00;99845.88;105119;1256;72131;-63
2023/12/14 06:26:27;;;;;;;46.40;23.00;;;;;;;3.52;100.00;99854.84;105164;1261;82994;-63
2023/12/14 06:28:56;;;;;;;41.20;21.80;;;;;;;3.51;100.00;99858.48;105153;1261;72401;-63
2023/12/14 06:31:24;;;;;;;41.80;21.00;;;;;;;3.49;100.00;99863.02;105223;1256;69173;-62
2023/12/14 06:33:52;;;;;;;39.30;21.10;;;;;;;3.49;100.00;99869.41;105149;1257;69709;-63
2023/12/14 06:36:26;;;;;;;43.20;21.40;;;;;;;3.48;100.00;99873.91;105132;1256;74195;-62
2023/12/14 06:38:55;;;;;;;39.20;20.70;;;;;;;3.48;100.00;99876.52;105157;1257;82574;-63
2023/12/14 06:41:25;;;;;;;38.20;20.80;;;;;;;3.48;100.00;99880.47;105178;1257;71471;-63
2023/12/14 06:43:54;;;;;;;39.00;19.80;;;;;;;3.48;100.00;99882.39;105169;1257;69089;-63
2023/12/14 06:46:22;;;;;;;37.60;19.20;;;;;;;3.47;100.00;99883.94;105194;1256;69215;-63
2023/12/14 06:48:50;;;;;;;31.00;18.90;;;;;;;3.48;100.00;99889.46;105136;1257;73515;-63
2023/12/14 06:51:19;;;;;;;35.50;18.60;;;;;;;3.48;100.00;99892.39;105192;1261;81512;-63
2023/12/14 06:53:48;;;;;;;34.80;19.10;;;;;;;3.47;100.00;99895.02;105191;1257;70705;-63
2023/12/14 06:56:16;;;;;;;35.00;18.80;;;;;;;3.46;100.00;99897.61;105176;1257;69080;-63
2023/12/14 06:58:45;;;;;;;36.70;19.80;;;;;;;3.45;100.00;99902.63;105132;1261;69202;-62
2023/12/14 07:01:14;;;;;;;34.60;18.30;;;;;;;3.44;100.00;99903.70;105185;1258;72918;-63
2023/12/14 07:03:44;;;;;;;33.50;18.90;;;;;;;3.44;100.00;99905.95;105150;1260;82761;-63
2023/12/14 07:06:14;;;;;;;35.60;18.30;;;;;;;3.44;100.00;99910.09;105157;1256;72057;-63
2023/12/14 07:08:42;;;;;;;38.40;18.90;;;;;;;3.43;100.00;99915.62;105191;1257;69103;-63
2023/12/14 07:11:11;;;;;;;36.00;19.40;;;;;;;3.42;100.00;99921.50;105231;1261;69134;-63
2023/12/14 07:13:40;;;;;;;34.40;18.40;;;;;;;3.41;100.00;99922.73;105186;1256;73176;-63
2023/12/14 07:16:10;;;;;;;31.50;18.00;;;;;;;3.41;100.00;99927.92;105220;1261;82040;-63
2023/12/14 07:18:41;;;;;;;32.90;19.10;;;;;;;3.40;100.00;99933.98;105138;1258;71541;-62
2023/12/14 07:21:10;;;;;;;34.60;19.80;;;;;;;3.40;100.00;99941.58;105173;1256;69107;-63
2023/12/14 07:23:38;;;;;;;31.60;18.70;;;;;;;3.39;100.00;99945.23;105186;1256;69120;-63
2023/12/14 07:26:06;;;;;;;33.00;19.00;;;;;;;3.38;100.00;99948.34;105116;1256;72941;-62
2023/12/14 07:28:35;;;;;;;34.50;19.10;;;;;;;3.37;100.00;99950.59;105204;1257;80583;-63
2023/12/14 07:31:04;;;;;;;33.90;18.40;;;;;;;3.36;100.00;99951.66;105165;1261;70406;-63
2023/12/14 07:33:32;;;;;;;33.80;19.70;;;;;;;3.34;100.00;99959.42;105128;1260;69203;-62
2023/12/14 07:36:01;;;;;;;32.40;18.70;;;;;;;3.35;100.00;99964.61;105241;1256;69208;-63
2023/12/14 07:38:30;;;;;;;33.20;19.10;;;;;;;3.34;100.00;99962.56;105198;1256;72674;-62
2023/12/14 07:40:58;;;;;;;31.90;18.70;;;;;;;3.34;100.00;99969.45;105180;1258;81495;-62
2023/12/14 07:43:26;;;;;;;33.20;19.40;;;;;;;3.34;100.00;99972.91;105178;1256;71715;-63
2023/12/14 07:45:55;;;;;;;34.70;18.90;;;;;;;3.33;100.00;99980.88;105090;1260;69163;-63
2023/12/14 07:48:23;;;;;;;37.50;19.90;;;;;;;3.34;100.00;99982.75;105140;1257;69247;-63
2023/12/14 07:50:51;;;;;;;33.10;19.00;;;;;;;3.34;100.00;99989.49;105110;1256;73035;-63
2023/12/14 07:53:19;;;;;;;34.50;19.60;;;;;;;3.33;100.00;99990.54;105206;1260;81252;-63
2023/12/14 07:55:48;;;;;;;35.40;18.80;;;;;;;3.32;100.00;99989.86;105153;1257;71952;-63
2023/12/14 07:58:16;;;;;;;37.10;20.10;;;;;;;3.33;100.00;99992.10;105088;1258;69135;-63
2023/12/14 08:00:45;;;;;;;35.80;20.70;;;;;;;3.34;100.00;99998.65;105176;1260;69225;-63
2023/12/14 08:03:13;;;;;;;35.00;19.80;;;;;;;3.35;100.00;100002.27;105122;1260;72733;-62
2023/12/14 08:05:42;;;;;;;33.90;19.40;;;;;;;3.36;100.00;100007.08;105149;1261;82697;-62
2023/12/14 08:08:10;;;;;;;36.10;20.70;;;;;;;3.38;100.00;100012.77;105140;1257;70262;-63
2023/12/14 08:10:38;;;;;;;36.20;19.90;;;;;;;3.40;100.00;100014.64;105137;1260;69134;-63
2023/12/14 08:13:06;;;;;;;36.00;21.10;;;;;;;3.40;100.00;100019.80;105119;1261;69186;-62
2023/12/14 08:15:35;;;;;;;38.40;20.90;;;;;;;3.41;100.00;100018.59;105142;1257;74171;-62
2023/12/14 08:18:04;;;;;;;36.90;20.90;;;;;;;3.42;100.00;100022.20;105144;1261;81250;-63
2023/12/14 08:20:32;;;;;;;35.10;19.80;;;;;;;3.43;100.00;100028.40;105195;1256;71722;-62
2023/12/14 08:23:00;;;;;;;34.30;19.80;;;;;;;3.43;100.00;100031.68;105138;1258;69201;-62
2023/12/14 08:25:29;;;;;;;36.90;20.20;;;;;;;3.42;100.00;100036.02;105100;1256;69187;-63
2023/12/14 08:27:57;;;;;;;33.90;20.80;;;;;;;3.41;100.00;100037.93;105140;1257;72713;-62
2023/12/14 08:30:27;;;;;;;39.10;21.40;;;;;;;3.43;100.00;100037.05;105179;1257;81861;-62
2023/12/14 08:32:55;;;;;;;36.90;21.20;;;;;;;3.44;100.00;100043.60;105134;1257;71971;-62
2023/12/14 08:35:23;;;;;;;38.00;22.20;;;;;;;3.45;100.00;100052.23;105128;1256;69106;-63
2023/12/14 08:37:51;;;;;;;32.60;20.50;;;;;;;3.45;100.00;100059.64;105144;1261;69167;-63
2023/12/14 08:40:20;;;;;;;38.80;21.40;;;;;;;3.44;100.00;100065.88;105197;1256;73248;-63
2023/12/14 08:42:48;;;;;;;38.60;21.60;;;;;;;3.43;100.00;100070.55;105119;1262;81491;-63
2023/12/14 08:45:17;;;;;;;39.90;21.30;;;;;;;3.44;100.00;100076.77;105179;1258;72872;-62
2023/12/14 08:47:45;;;;;;;37.90;20.80;;;;;;;3.44;100.00;100082.64;105196;1256;69145;-63
2023/12/14 08:50:13;;;;;;;40.40;22.80;;;;;;;3.44;100.00;100087.30;105134;1260;69221;-62
2023/12/14 08:52:42;;;;;;;36.60;22.30;;;;;;;3.44;100.00;100091.79;105121;1256;73065;-63
2023/12/14 08:55:10;;;;;;;37.00;21.60;;;;;;;3.44;100.00;100095.93;105128;1261;81699;-62
2023/12/14 08:57:38;;;;;;;37.60;22.80;;;;;;;3.44;100.00;100095.77;105199;1260;71823;-62
2023/12/14 09:00:07;;;;;;;37.40;22.10;;;;;;;3.46;100.00;100096.77;105181;1257;69149;-62
2023/12/14 09:02:36;;;;;;;33.70;21.30;;;;;;;3.49;100.00;100097.42;105155;1260;69135;-62
2023/12/14 09:05:05;;;;;;;34.50;20.60;;;;;;;3.52;100.00;100101.36;105223;1260;72877;-62
2023/12/14 09:07:34;;;;;;;37.20;21.80;;;;;;;3.54;100.00;100109.29;105182;1260;81490;-62
2023/12/14 09:10:02;;;;;;;39.00;22.60;;;;;;;3.52;100.00;100113.27;105225;1256;73018;-62
2023/12/14 09:12:31;;;;;;;35.00;20.40;;;;;;;3.52;100.00;100116.21;105175;1262;69061;-63
2023/12/14 09:15:01;;;;;;;39.20;23.40;;;;;;;3.51;100.00;100121.58;105244;1261;69231;-62
2023/12/14 09:17:32;;;;;;;39.90;22.80;;;;;;;3.50;100.00;100126.25;105175;1257;73542;-62
2023/12/14 09:20:05;;;;;;;39.00;21.90;;;;;;;3.50;100.00;100133.51;105171;1257;83010;-62
2023/12/14 09:22:34;;;;;;;41.20;22.80;;;;;;;3.50;100.00;100136.61;105181;1256;72240;-62
2023/12/14 09:25:03;;;;;;;35.90;20.30;;;;;;;3.51;100.00;100139.20;105151;1261;69087;-62
2023/12/14 09:27:31;;;;;;;32.40;18.40;;;;;;;3.51;100.00;100142.81;105221;1260;69209;-62
2023/12/14 09:29:59;;;;;;;29.60;19.00;;;;;;;3.51;100.00;100145.23;105171;1256;72949;-62
2023/12/14 09:32:28;;;;;;;32.50;19.50;;;;;;;3.53;100.00;100146.42;105152;1261;81893;-63
2023/12/14 09:34:56;;;;;;;32.20;19.70;;;;;;;3.54;100.00;100149.86;105206;1261;72183;-62
2023/12/14 09:37:25;;;;;;;32.60;19.20;;;;;;;3.56;100.00;100149.16;105210;1258;69124;-62
2023/12/14 09:39:53;;;;;;;32.10;19.50;;;;;;;3.58;100.00;100152.25;105072;1257;69273;-62
2023/12/14 09:42:21;;;;;;;32.20;19.20;;;;;;;3.61;100.00;100150.65;105155;1257;72623;-63
2023/12/14 09:44:50;;;;;;;32.90;18.80;;;;;;;3.64;100.00;100154.42;105147;1260;81842;-62
2023/12/14 09:47:19;;;;;;;32.50;18.80;;;;;;;3.64;100.00;100155.10;105175;1257;72187;-62
2023/12/14 09:49:48;;;;;;;33.70;21.70;;;;;;;3.61;100.00;100159.98;105198;1260;69133;-62
2023/12/14 09:52:16;;;;;;;30.30;18.50;;;;;;;3.59;100.00;100163.63;105189;1256;69133;-62
2023/12/14 09:54:44;;;;;;;30.70;18.10;;;;;;;3.58;100.00;100169.17;105130;1257;73099;-62
2023/12/14 09:57:12;;;;;;;28.80;18.30;;;;;;;3.59;100.00;100170.20;105196;1260;81426;-62
2023/12/14 09:59:42;;;;;;;34.10;19.30;;;;;;;3.60;100.00;100171.91;105115;1256;71999;-63
2023/12/14 10:02:11;;;;;;;29.20;18.30;;;;;;;3.60;100.00;100168.80;105198;1257;69226;-63
2023/12/14 10:04:40;;;;;;;29.00;17.90;;;;;;;3.58;100.00;100169.87;105176;1261;69180;-63
2023/12/14 10:07:08;;;;;;;31.50;19.40;;;;;;;3.57;100.00;100172.46;105265;1261;73034;-62
2023/12/14 10:09:37;;;;;;;30.60;18.40;;;;;;;3.58;100.00;100172.98;105106;1260;81927;-63
2023/12/14 10:12:07;;;;;;;28.30;17.30;;;;;;;3.59;100.00;100169.16;105205;1256;71886;-63
2023/12/14 10:14:36;;;;;;;31.80;18.30;;;;;;;3.61;100.00;100174.15;105187;1260;69232;-63
2023/12/14 10:17:19;;;;;;;31.80;18.40;;;;;;;3.63;100.00;100174.29;105201;1259;69205;-63
2023/12/14 10:19:49;;;;;;;32.60;17.80;;;;;;;3.64;100.00;100178.43;105163;1260;72934;-63
2023/12/14 10:22:17;;;;;;;56.90;31.20;;;;;;;3.65;100.00;100183.95;105146;1261;82576;-63
2023/12/14 10:24:47;;;;;;;38.00;21.40;;;;;;;3.62;100.00;100188.64;105226;1256;71822;-63
2023/12/14 10:27:16;;;;;;;33.00;20.30;;;;;;;3.61;100.00;100191.08;105157;1262;69168;-63
2023/12/14 10:29:45;;;;;;;33.80;19.40;;;;;;;3.61;100.00;100194.73;105180;1257;69066;-63
2023/12/14 10:32:14;;;;;;;40.90;22.30;;;;;;;3.58;100.00;100201.32;105165;1256;73562;-63
2023/12/14 10:34:42;;;;;;;31.40;19.50;;;;;;;3.56;100.00;100204.77;105091;1261;81493;-63
2023/12/14 10:37:12;;;;;;;32.70;19.90;;;;;;;3.56;100.00;100208.92;105262;1259;71851;-63
2023/12/14 10:39:42;;;;;;;33.80;20.00;;;;;;;3.54;100.00;100211.54;105207;1260;69497;-63
2023/12/14 10:42:10;;;;;;;30.90;18.70;;;;;;;3.53;100.00;100214.68;105176;1256;69072;-63
2023/12/14 10:44:52;;;;;;;27.40;17.10;;;;;;;3.51;100.00;100218.99;105250;1260;73461;-63
2023/12/14 10:47:23;;;;;;;28.60;18.00;;;;;;;3.51;100.00;100221.24;104774;1268;81688;-63
2023/12/14 10:49:53;;;;;;;30.30;17.90;;;;;;;3.53;100.00;100227.28;104760;1266;71726;-63
2023/12/14 10:52:22;;;;;;;28.20;17.60;;;;;;;3.53;100.00;100227.80;104633;1266;69242;-63
2023/12/14 10:54:56;;;;;;;26.00;16.30;;;;;;;3.53;100.00;100230.38;104611;1268;231351;-63
2023/12/14 10:57:24;;;;;;;23.70;13.20;;;;;;;3.53;100.00;100237.31;104736;1266;73298;-63
2023/12/14 11:00:00;;;;;;;20.20;12.70;;;;;;;3.52;100.00;100236.27;104676;1267;81517;-63
2023/12/14 11:02:30;;;;;;;19.40;12.20;;;;;;;3.51;100.00;100243.70;104757;1265;70637;-63
2023/12/14 11:05:05;;;;;;;28.50;16.20;;;;;;;3.49;100.00;100248.73;104781;1266;69465;-63
2023/12/14 11:07:54;;;;;;;22.70;14.10;;;;;;;3.47;100.00;100245.48;105176;1262;69132;-63
2023/12/14 11:10:26;;;;;;;24.90;14.60;;;;;;;3.46;100.00;100248.77;105175;1260;72088;-63
2023/12/14 11:13:04;;;;;;;22.80;13.50;;;;;;;3.45;100.00;100249.66;105148;1256;81773;-63
2023/12/14 11:15:35;;;;;;;22.90;14.20;;;;;;;3.44;100.00;100253.30;105121;1257;71876;-63